Time;durP1;ratioP1;P1;durP2;ratioP2;P2;SDS_P1;SDS_P2;PMS_P1;PMS_P2;Temp;Humidity;BMP_temperature;BMP_pressure;BME280_temperature;BME280_humidity;BME280_pressure;Samples;Min_cycle;Max_cycle;Signal;HPM_P1;HPM_P2
2022/06/26 00:00:44;;;;;;;15.40;13.73;;;18.90;99.90;;;;;;5090490;28;20589;-76
2022/06/26 00:03:10;;;;;;;13.35;12.10;;;18.60;99.90;;;;;;5091502;28;20051;-75
2022/06/26 00:05:36;;;;;;;13.88;12.48;;;18.60;99.90;;;;;;5091114;28;20475;-75
2022/06/26 00:08:02;;;;;;;14.38;12.45;;;18.60;99.90;;;;;;5071688;28;20059;-76
2022/06/26 00:10:28;;;;;;;13.25;11.95;;;18.60;99.90;;;;;;5090686;28;20051;-75
2022/06/26 00:12:54;;;;;;;17.88;12.55;;;18.60;99.90;;;;;;5072011;28;20055;-75
2022/06/26 00:15:20;;;;;;;12.30;11.00;;;18.60;99.90;;;;;;5055790;28;20044;-75
2022/06/26 00:17:45;;;;;;;12.20;11.02;;;18.50;99.90;;;;;;5071961;28;20479;-75
2022/06/26 00:20:13;;;;;;;12.65;11.35;;;18.50;99.90;;;;;;5090363;28;20059;-75
2022/06/26 00:22:38;;;;;;;12.65;10.88;;;18.50;99.90;;;;;;5046744;28;20036;-75
2022/06/26 00:25:08;;;;;;;12.30;11.00;;;18.50;99.90;;;;;;5072395;28;20607;-75
2022/06/26 00:27:34;;;;;;;12.48;10.63;;;18.50;99.90;;;;;;5066877;28;20044;-75
2022/06/26 00:30:00;;;;;;;13.02;10.52;;;18.50;99.90;;;;;;5088631;28;20132;-76
2022/06/26 00:32:26;;;;;;;13.10;11.60;;;18.40;99.90;;;;;;5051475;28;20043;-75
2022/06/26 00:34:51;;;;;;;12.88;11.63;;;18.40;99.90;;;;;;5060700;28;20052;-76
2022/06/26 00:37:17;;;;;;;14.95;12.57;;;18.40;99.90;;;;;;5055409;28;20121;-75
2022/06/26 00:39:42;;;;;;;16.38;12.77;;;18.40;99.90;;;;;;5071373;28;20970;-75
2022/06/26 00:42:08;;;;;;;13.30;11.55;;;18.30;99.90;;;;;;5072306;28;20036;-75
2022/06/26 00:44:34;;;;;;;12.90;11.57;;;18.30;99.90;;;;;;5071964;28;20075;-75
2022/06/26 00:46:59;;;;;;;11.82;10.70;;;18.30;99.90;;;;;;5046586;28;20131;-75
2022/06/26 00:49:25;;;;;;;11.43;10.07;;;18.40;99.90;;;;;;5090081;28;20035;-75
2022/06/26 00:51:52;;;;;;;12.15;11.05;;;18.30;99.90;;;;;;5070072;28;20043;-75
2022/06/26 00:54:20;;;;;;;12.70;11.52;;;18.30;99.90;;;;;;5089846;28;20040;-75
2022/06/26 00:56:46;;;;;;;17.33;14.10;;;18.30;99.90;;;;;;5071431;28;20093;-75
2022/06/26 00:59:11;;;;;;;18.45;15.38;;;18.70;99.90;;;;;;5055210;28;20035;-76
2022/06/26 01:01:37;;;;;;;16.02;11.98;;;18.30;99.90;;;;;;5089817;28;20372;-75
2022/06/26 01:04:03;;;;;;;13.45;12.07;;;18.20;99.90;;;;;;5089082;28;20067;-75
2022/06/26 01:06:31;;;;;;;16.67;12.48;;;18.20;99.90;;;;;;5090095;28;20083;-76
2022/06/26 01:08:59;;;;;;;14.75;12.68;;;18.40;99.90;;;;;;5045559;28;20491;-75
2022/06/26 01:11:26;;;;;;;18.65;12.80;;;18.30;99.90;;;;;;5054910;28;20079;-75
2022/06/26 01:13:54;;;;;;;17.95;13.65;;;18.20;99.90;;;;;;5071517;28;20127;-74
2022/06/26 01:16:21;;;;;;;15.45;13.45;;;19.10;99.90;;;;;;5089791;28;20451;-75
2022/06/26 01:18:50;;;;;;;15.85;13.98;;;19.00;99.90;;;;;;5088741;28;20071;-75
2022/06/26 01:21:17;;;;;;;14.80;12.60;;;18.00;99.90;;;;;;5063648;28;20047;-75
2022/06/26 01:23:43;;;;;;;14.65;11.57;;;18.70;99.90;;;;;;5054301;28;20547;-75
2022/06/26 01:26:09;;;;;;;17.08;12.73;;;18.80;99.90;;;;;;5087559;28;20139;-75
2022/06/26 01:28:34;;;;;;;16.38;12.98;;;17.90;99.90;;;;;;5071001;28;20441;-75
2022/06/26 01:31:01;;;;;;;16.17;12.15;;;17.80;99.90;;;;;;5070795;28;20489;-75
2022/06/26 01:33:27;;;;;;;13.95;12.45;;;17.80;99.90;;;;;;5088909;28;20511;-76
2022/06/26 01:35:53;;;;;;;19.67;12.45;;;17.80;99.90;;;;;;5070687;28;20039;-75
2022/06/26 01:38:21;;;;;;;13.18;11.73;;;17.80;99.90;;;;;;5046482;28;20048;-76
2022/06/26 01:40:48;;;;;;;15.65;11.98;;;17.90;99.90;;;;;;5087978;28;20046;-75
2022/06/26 01:43:16;;;;;;;15.88;11.73;;;18.60;99.90;;;;;;5071013;28;20048;-75
2022/06/26 01:45:48;;;;;;;14.10;11.18;;;17.90;99.90;;;;;;5070712;28;20099;-75
2022/06/26 01:48:15;;;;;;;15.77;11.88;;;17.80;99.90;;;;;;5042309;28;20194;-75
2022/06/26 01:50:41;;;;;;;15.88;10.23;;;18.10;99.90;;;;;;5088319;28;20044;-75
2022/06/26 01:53:07;;;;;;;12.30;10.55;;;17.80;99.90;;;;;;5045229;28;20041;-75
2022/06/26 01:55:33;;;;;;;14.65;10.25;;;17.80;99.90;;;;;;5071359;28;20532;-75
2022/06/26 01:58:02;;;;;;;13.85;10.75;;;17.80;99.90;;;;;;5069870;28;20472;-75
2022/06/26 02:00:38;;;;;;;10.15;8.23;;;17.80;99.90;;;;;;5068382;28;20059;-75
2022/06/26 02:03:05;;;;;;;11.77;8.68;;;17.80;99.90;;;;;;5083529;28;20063;-75
2022/06/26 02:05:31;;;;;;;12.25;8.48;;;17.80;99.90;;;;;;5062180;28;20526;-75
2022/06/26 02:07:57;;;;;;;12.60;8.38;;;17.80;99.90;;;;;;5087811;28;20044;-75
2022/06/26 02:15:55;;;;;;;11.23;8.27;;;17.80;99.90;;;;;;5069547;28;20048;-76
2022/06/26 02:18:21;;;;;;;11.40;7.80;;;17.80;99.90;;;;;;5088348;28;20032;-75
2022/06/26 02:20:47;;;;;;;10.35;7.45;;;17.70;99.90;;;;;;5070029;28;20525;-75
2022/06/26 02:23:13;;;;;;;12.20;8.63;;;17.70;99.90;;;;;;5088165;28;20028;-75
2022/06/26 02:25:40;;;;;;;10.60;7.88;;;17.80;99.90;;;;;;5088065;28;20507;-74
2022/06/26 02:28:06;;;;;;;9.32;7.35;;;17.80;99.90;;;;;;5048424;28;20047;-75
2022/06/26 02:30:32;;;;;;;9.73;6.00;;;17.80;99.90;;;;;;5088140;28;20040;-74
2022/06/26 02:32:57;;;;;;;12.65;7.07;;;17.70;99.90;;;;;;5087466;28;20059;-75
2022/06/26 02:35:24;;;;;;;12.60;7.93;;;18.10;99.90;;;;;;5053121;28;20120;-75
2022/06/26 02:37:51;;;;;;;12.07;6.97;;;18.00;99.90;;;;;;5053240;28;20044;-75
2022/06/26 02:40:17;;;;;;;8.95;7.35;;;17.60;99.90;;;;;;5068596;28;20054;-75
2022/06/26 02:42:43;;;;;;;7.88;6.70;;;17.60;99.90;;;;;;5087736;28;20024;-75
2022/06/26 02:45:09;;;;;;;9.00;6.97;;;17.60;99.90;;;;;;5070085;28;20051;-75
2022/06/26 02:47:35;;;;;;;7.55;5.95;;;17.70;99.90;;;;;;5069722;28;20048;-76
2022/06/26 02:50:02;;;;;;;11.18;6.53;;;18.00;99.90;;;;;;5087484;28;20442;-76
2022/06/26 02:52:28;;;;;;;8.80;6.72;;;17.70;99.90;;;;;;5085057;28;20506;-75
2022/06/26 02:54:53;;;;;;;9.88;6.65;;;17.70;99.90;;;;;;5067349;28;20044;-74
2022/06/26 02:57:19;;;;;;;7.63;6.15;;;17.70;99.90;;;;;;5069533;28;20190;-74
2022/06/26 02:59:45;;;;;;;8.55;5.82;;;17.70;99.90;;;;;;5083977;28;20036;-75
2022/06/26 03:02:10;;;;;;;8.48;6.50;;;17.70;99.90;;;;;;5086546;28;20364;-75
2022/06/26 03:04:36;;;;;;;7.30;6.55;;;17.90;99.90;;;;;;5064944;28;20044;-74
2022/06/26 03:07:02;;;;;;;12.75;6.75;;;17.80;99.90;;;;;;5051276;28;20044;-74
2022/06/26 03:09:27;;;;;;;6.78;5.38;;;17.70;99.90;;;;;;5081379;28;20490;-76
2022/06/26 03:11:53;;;;;;;6.35;5.32;;;17.70;99.90;;;;;;5087188;28;20052;-74
2022/06/26 03:14:19;;;;;;;12.23;5.97;;;17.60;99.90;;;;;;5051085;28;20059;-75
2022/06/26 03:16:44;;;;;;;7.32;5.85;;;17.60;99.90;;;;;;5073031;28;20120;-75
2022/06/26 03:19:10;;;;;;;6.78;4.90;;;17.60;99.90;;;;;;5086921;28;20072;-75
2022/06/26 03:21:35;;;;;;;8.07;4.63;;;17.40;99.90;;;;;;5089886;28;20047;-74
2022/06/26 03:24:01;;;;;;;5.78;4.70;;;17.50;99.90;;;;;;5086678;28;20111;-74
2022/06/26 03:26:28;;;;;;;6.65;4.97;;;17.50;99.90;;;;;;5070938;28;20535;-75
2022/06/26 03:28:54;;;;;;;6.18;4.60;;;17.40;99.90;;;;;;5089573;28;20051;-74
2022/06/26 03:31:20;;;;;;;5.93;5.05;;;17.40;99.90;;;;;;5070269;28;20601;-74
2022/06/26 03:33:46;;;;;;;6.80;4.97;;;17.50;99.90;;;;;;5055669;28;20044;-75
2022/06/26 03:36:12;;;;;;;7.63;4.93;;;17.40;99.90;;;;;;5036665;28;20135;-74
2022/06/26 03:38:38;;;;;;;7.47;5.15;;;17.30;99.90;;;;;;5071515;28;20620;-74
2022/06/26 03:41:04;;;;;;;6.88;4.90;;;17.30;99.90;;;;;;5068414;28;20529;-74
2022/06/26 03:43:30;;;;;;;6.72;4.63;;;17.30;99.90;;;;;;5054627;28;20067;-73
2022/06/26 03:45:55;;;;;;;4.88;4.22;;;17.40;99.90;;;;;;5085303;28;20132;-75
2022/06/26 03:48:21;;;;;;;6.25;5.28;;;17.70;99.90;;;;;;5070345;28;20048;-76
2022/06/26 03:50:46;;;;;;;8.70;4.47;;;17.50;99.90;;;;;;5090407;28;20047;-75
2022/06/26 03:53:12;;;;;;;8.18;4.20;;;17.20;99.90;;;;;;5072987;28;20485;-76
2022/06/26 03:55:38;;;;;;;8.13;4.38;;;17.20;99.90;;;;;;5087305;28;20090;-75
2022/06/26 03:58:04;;;;;;;4.13;3.72;;;18.00;99.90;;;;;;5055387;28;20048;-75
2022/06/26 04:00:29;;;;;;;4.50;4.10;;;17.10;99.90;;;;;;5088290;28;20051;-76
2022/06/26 04:02:55;;;;;;;6.15;3.78;;;17.20;99.90;;;;;;5087107;28;20056;-75
2022/06/26 04:05:21;;;;;;;5.82;4.85;;;17.20;99.90;;;;;;5071573;28;20040;-75
2022/06/26 04:07:47;;;;;;;5.63;3.25;;;17.10;99.90;;;;;;5052420;28;20040;-75
2022/06/26 04:10:13;;;;;;;4.43;4.00;;;17.30;99.90;;;;;;5072904;28;20067;-76
2022/06/26 04:12:39;;;;;;;4.60;4.07;;;17.10;99.90;;;;;;5054741;28;20066;-76
2022/06/26 04:15:05;;;;;;;4.53;3.42;;;17.10;99.90;;;;;;5090652;28;20507;-75
2022/06/26 04:17:31;;;;;;;4.00;3.58;;;17.10;99.90;;;;;;5064521;28;20041;-75
2022/06/26 04:19:56;;;;;;;4.03;3.60;;;17.10;99.90;;;;;;5055894;28;20113;-75
2022/06/26 04:22:22;;;;;;;4.57;3.53;;;17.10;99.90;;;;;;5064633;28;20056;-75
2022/06/26 04:24:48;;;;;;;4.82;3.35;;;17.10;99.90;;;;;;5071976;28;20047;-75
2022/06/26 04:27:14;;;;;;;3.67;3.38;;;17.10;99.90;;;;;;5055903;28;20048;-75
2022/06/26 04:29:40;;;;;;;4.85;3.40;;;17.10;99.90;;;;;;5071824;28;20044;-76
2022/06/26 04:32:06;;;;;;;5.00;2.88;;;17.10;99.90;;;;;;5072991;28;20482;-76
2022/06/26 04:34:32;;;;;;;3.33;2.95;;;17.10;99.90;;;;;;5054117;28;20043;-76
2022/06/26 04:36:57;;;;;;;3.25;2.95;;;17.10;99.90;;;;;;5089848;28;20385;-75
2022/06/26 04:39:23;;;;;;;4.75;3.85;;;17.10;99.90;;;;;;5090907;28;20040;-76
2022/06/26 04:41:49;;;;;;;4.47;3.60;;;17.10;99.90;;;;;;5071876;28;20054;-76
2022/06/26 04:44:15;;;;;;;4.22;2.90;;;17.10;99.90;;;;;;5072889;28;20036;-77
2022/06/26 04:46:41;;;;;;;3.88;3.30;;;17.10;99.90;;;;;;5090300;28;20058;-74
2022/06/26 04:49:08;;;;;;;3.92;2.92;;;17.10;99.90;;;;;;5072400;28;20131;-74
2022/06/26 04:51:37;;;;;;;4.25;3.85;;;17.00;99.90;;;;;;5090648;28;20407;-77
2022/06/26 04:54:07;;;;;;;4.30;3.58;;;17.00;99.90;;;;;;5072095;28;20365;-77
2022/06/26 04:56:34;;;;;;;3.35;3.15;;;17.10;99.90;;;;;;5090279;28;20036;-76
2022/06/26 04:59:00;;;;;;;3.22;2.97;;;17.10;99.90;;;;;;5084187;28;20036;-76
2022/06/26 05:01:26;;;;;;;5.95;2.85;;;17.10;99.90;;;;;;5070841;28;20134;-77
2022/06/26 05:03:52;;;;;;;4.57;3.22;;;17.10;99.90;;;;;;5071335;28;20043;-76
2022/06/26 05:06:18;;;;;;;5.15;3.50;;;17.10;99.90;;;;;;5072292;28;20098;-76
2022/06/26 05:08:44;;;;;;;4.15;3.58;;;17.10;99.90;;;;;;5053642;28;20048;-76
2022/06/26 05:11:10;;;;;;;6.25;3.30;;;17.20;99.90;;;;;;5071871;28;20055;-76
2022/06/26 05:13:36;;;;;;;4.05;3.72;;;17.20;99.90;;;;;;5071648;28;20134;-75
2022/06/26 05:16:01;;;;;;;5.82;3.92;;;17.20;99.90;;;;;;5071333;28;20044;-76
2022/06/26 05:18:27;;;;;;;3.70;3.40;;;17.20;99.90;;;;;;5071249;28;20102;-76
2022/06/26 05:20:53;;;;;;;4.80;4.10;;;17.20;99.90;;;;;;5088934;28;20043;-75
2022/06/26 05:23:19;;;;;;;4.07;3.78;;;17.30;99.90;;;;;;5090354;28;20510;-75
2022/06/26 05:25:44;;;;;;;4.63;4.22;;;17.30;99.90;;;;;;5076276;28;20059;-77
2022/06/26 05:28:11;;;;;;;4.28;3.97;;;18.00;99.90;;;;;;5067212;28;20039;-76
2022/06/26 05:30:36;;;;;;;5.88;3.92;;;17.30;99.90;;;;;;5054547;28;20468;-75
2022/06/26 05:33:03;;;;;;;4.57;4.18;;;17.30;99.90;;;;;;5067673;28;20036;-76
2022/06/26 05:35:29;;;;;;;5.93;4.72;;;17.30;99.90;;;;;;5089692;28;20507;-76
2022/06/26 05:37:55;;;;;;;6.82;5.13;;;17.30;99.90;;;;;;5070831;28;20054;-75
2022/06/26 05:40:21;;;;;;;5.47;5.07;;;17.30;99.90;;;;;;5089458;28;20048;-75
2022/06/26 05:42:47;;;;;;;6.70;5.22;;;18.00;99.90;;;;;;5089211;28;20032;-76
2022/06/26 05:45:13;;;;;;;7.70;5.88;;;17.30;99.90;;;;;;5042832;28;20051;-75
2022/06/26 05:47:38;;;;;;;6.88;6.18;;;17.30;99.90;;;;;;5088381;28;20040;-75
2022/06/26 05:50:05;;;;;;;7.88;6.93;;;17.30;99.90;;;;;;5088608;28;20122;-75
2022/06/26 05:52:30;;;;;;;7.78;7.07;;;17.30;99.90;;;;;;5070933;28;20560;-76
2022/06/26 05:54:56;;;;;;;7.95;7.25;;;17.30;99.90;;;;;;5070966;28;20079;-75
2022/06/26 05:57:22;;;;;;;7.13;6.53;;;17.30;99.90;;;;;;5070882;28;20067;-75
2022/06/26 05:59:48;;;;;;;8.00;7.28;;;17.30;99.90;;;;;;5070002;28;20044;-76
2022/06/26 06:02:13;;;;;;;8.25;7.00;;;17.90;99.90;;;;;;5070991;28;20093;-75
2022/06/26 06:04:39;;;;;;;8.23;7.40;;;17.30;99.90;;;;;;5070649;28;20040;-75
2022/06/26 06:07:05;;;;;;;9.50;7.07;;;17.40;99.90;;;;;;5088869;28;20036;-75
2022/06/26 06:09:32;;;;;;;9.27;8.40;;;17.40;99.90;;;;;;5088937;28;20555;-76
2022/06/26 06:11:57;;;;;;;8.70;7.80;;;17.40;99.90;;;;;;5088733;28;20040;-76
2022/06/26 06:14:23;;;;;;;8.85;7.93;;;17.90;99.90;;;;;;5070352;28;20063;-75
2022/06/26 06:16:49;;;;;;;8.48;7.78;;;17.50;99.90;;;;;;5088658;28;20115;-75
2022/06/26 06:19:15;;;;;;;12.30;10.07;;;17.80;99.90;;;;;;5070350;28;20044;-76
2022/06/26 06:21:41;;;;;;;10.05;9.05;;;17.50;99.90;;;;;;5087681;28;20079;-75
2022/06/26 06:24:06;;;;;;;11.13;9.98;;;17.40;99.90;;;;;;5050742;28;20042;-76
2022/06/26 06:26:32;;;;;;;10.55;9.50;;;17.50;99.90;;;;;;5070974;28;20059;-75
2022/06/26 06:28:58;;;;;;;11.65;10.55;;;17.50;99.90;;;;;;5065771;28;20053;-76
2022/06/26 06:31:23;;;;;;;11.95;10.80;;;17.60;99.90;;;;;;5052843;28;20061;-76
2022/06/26 06:33:49;;;;;;;11.70;10.50;;;17.50;99.90;;;;;;5067377;28;20036;-75
2022/06/26 06:36:15;;;;;;;11.95;10.85;;;17.60;99.90;;;;;;5068675;28;20075;-76
2022/06/26 06:38:41;;;;;;;13.35;12.05;;;17.60;99.90;;;;;;5067924;28;20067;-75
2022/06/26 06:41:07;;;;;;;13.75;12.35;;;17.60;99.90;;;;;;5068012;28;20469;-74
2022/06/26 06:43:33;;;;;;;14.85;13.40;;;17.60;99.90;;;;;;5069884;28;20048;-73
2022/06/26 06:45:59;;;;;;;15.23;13.68;;;17.60;99.90;;;;;;5079687;28;20123;-76
2022/06/26 06:48:25;;;;;;;15.75;14.23;;;18.20;99.90;;;;;;5087802;28;20067;-74
2022/06/26 06:50:52;;;;;;;18.13;14.07;;;17.80;99.90;;;;;;5065416;28;20601;-74
2022/06/26 06:53:19;;;;;;;15.45;14.02;;;17.70;99.90;;;;;;5052110;28;20048;-75
2022/06/26 06:55:45;;;;;;;16.70;15.13;;;17.70;99.90;;;;;;5085603;28;20047;-75
2022/06/26 06:58:11;;;;;;;19.48;16.90;;;17.70;99.90;;;;;;5068001;28;20082;-75
2022/06/26 07:00:40;;;;;;;17.23;15.48;;;17.80;99.90;;;;;;5068885;28;20073;-76
2022/06/26 07:03:06;;;;;;;18.27;16.50;;;17.50;99.90;;;;;;5066924;28;20051;-76
2022/06/26 07:05:32;;;;;;;20.95;18.83;;;17.80;99.90;;;;;;5065835;28;20040;-75
2022/06/26 07:07:59;;;;;;;18.67;16.83;;;17.70;99.90;;;;;;5087435;28;20076;-75
2022/06/26 07:10:25;;;;;;;22.20;18.42;;;17.70;99.90;;;;;;5067370;28;20642;-75
2022/06/26 07:12:55;;;;;;;21.60;19.35;;;18.10;99.90;;;;;;5087887;28;20044;-76
2022/06/26 07:15:21;;;;;;;23.88;21.05;;;17.70;99.90;;;;;;5070507;28;20484;-74
2022/06/26 07:17:46;;;;;;;23.20;20.77;;;18.00;99.90;;;;;;5087211;28;20043;-76
2022/06/26 07:20:12;;;;;;;23.00;20.50;;;17.70;99.90;;;;;;5070173;28;20181;-76
2022/06/26 07:22:38;;;;;;;22.35;19.70;;;17.70;99.90;;;;;;5087650;28;20502;-76
2022/06/26 07:25:04;;;;;;;22.40;20.13;;;17.70;99.90;;;;;;5069086;28;20110;-76
2022/06/26 07:27:29;;;;;;;22.42;20.00;;;17.70;99.90;;;;;;5088108;28;20314;-76
2022/06/26 07:29:55;;;;;;;23.48;20.15;;;18.00;99.90;;;;;;5084796;28;20040;-76
2022/06/26 07:32:21;;;;;;;23.58;19.27;;;17.80;99.90;;;;;;5053492;28;20399;-77
2022/06/26 07:34:46;;;;;;;19.00;17.02;;;17.80;99.90;;;;;;5051020;28;20051;-77
2022/06/26 07:37:12;;;;;;;17.30;15.45;;;17.80;99.90;;;;;;5069164;28;20342;-76
2022/06/26 07:39:37;;;;;;;15.23;13.63;;;17.70;99.90;;;;;;5069102;28;20048;-76
2022/06/26 07:42:04;;;;;;;21.42;17.38;;;17.80;99.90;;;;;;5088295;28;20071;-76
2022/06/26 07:44:30;;;;;;;21.40;18.08;;;17.80;99.90;;;;;;5087498;28;20040;-75
2022/06/26 07:46:57;;;;;;;18.75;16.75;;;17.80;99.90;;;;;;5069402;28;20044;-76
2022/06/26 07:49:23;;;;;;;18.80;14.55;;;17.80;99.90;;;;;;5069331;28;20412;-76
2022/06/26 07:51:49;;;;;;;14.55;13.02;;;17.90;99.90;;;;;;5068347;28;20466;-76
2022/06/26 07:54:15;;;;;;;17.05;14.68;;;18.00;99.90;;;;;;5069684;28;20459;-76
2022/06/26 07:56:41;;;;;;;14.98;13.40;;;18.00;99.90;;;;;;5061379;28;20044;-75
2022/06/26 07:59:07;;;;;;;14.18;12.63;;;18.20;99.90;;;;;;5087465;28;20044;-77
2022/06/26 08:01:32;;;;;;;15.55;13.90;;;18.30;99.90;;;;;;5089995;28;20428;-75
2022/06/26 08:03:58;;;;;;;14.48;13.13;;;18.60;99.90;;;;;;5072108;28;20044;-76
2022/06/26 08:06:24;;;;;;;18.50;13.52;;;18.40;99.90;;;;;;5073404;28;20083;-76
2022/06/26 08:08:53;;;;;;;15.82;14.00;;;18.50;99.90;;;;;;5049368;28;20048;-76
2022/06/26 08:11:19;;;;;;;15.73;13.88;;;18.40;99.90;;;;;;5072622;28;20050;-75
2022/06/26 08:13:45;;;;;;;12.82;11.50;;;19.10;99.90;;;;;;5091198;28;20119;-78
2022/06/26 08:16:11;;;;;;;13.70;12.27;;;18.60;99.90;;;;;;5073195;28;20163;-74
2022/06/26 08:18:37;;;;;;;15.25;12.68;;;18.80;99.90;;;;;;5055657;28;20175;-75
2022/06/26 08:23:48;;;;;;;10.48;9.45;;;18.50;99.90;;;;;;5072624;28;20048;-75
2022/06/26 08:26:13;;;;;;;8.40;7.60;;;18.40;99.90;;;;;;5072355;28;20058;-76
2022/06/26 08:28:39;;;;;;;7.85;6.93;;;18.40;99.90;;;;;;5090863;28;20051;-75
2022/06/26 08:31:05;;;;;;;6.90;6.25;;;18.40;99.90;;;;;;5090245;28;20036;-77
2022/06/26 08:33:30;;;;;;;9.48;7.88;;;18.50;99.90;;;;;;5072573;28;20115;-75
2022/06/26 08:35:56;;;;;;;10.10;9.05;;;19.10;99.90;;;;;;5072326;28;20056;-76
2022/06/26 08:38:21;;;;;;;11.57;9.35;;;18.60;99.90;;;;;;5090445;28;20036;-77
2022/06/26 08:40:47;;;;;;;11.40;10.40;;;18.70;99.90;;;;;;5089655;28;20040;-75
2022/06/26 08:43:14;;;;;;;12.40;10.70;;;18.80;99.90;;;;;;5091237;28;20490;-74
2022/06/26 08:45:41;;;;;;;10.93;9.77;;;18.80;99.90;;;;;;5072743;28;20042;-75
2022/06/26 08:48:09;;;;;;;12.10;10.80;;;19.40;99.90;;;;;;5071875;28;20036;-76
2022/06/26 08:50:34;;;;;;;10.07;8.93;;;19.50;99.90;;;;;;5090638;28;20048;-75
2022/06/26 08:53:01;;;;;;;9.25;7.70;;;19.20;99.90;;;;;;5090195;28;20377;-76
2022/06/26 08:55:28;;;;;;;5.85;5.25;;;19.30;99.90;;;;;;5072377;28;20047;-76
2022/06/26 08:57:54;;;;;;;5.20;4.68;;;19.40;99.90;;;;;;5055057;28;20130;-75
2022/06/26 09:00:19;;;;;;;6.72;4.10;;;19.40;99.90;;;;;;5071614;28;20131;-77
2022/06/26 09:02:46;;;;;;;5.93;3.83;;;19.30;99.90;;;;;;5089915;28;20127;-75
2022/06/26 09:05:12;;;;;;;4.55;3.40;;;19.50;99.90;;;;;;5090492;28;20118;-76
2022/06/26 09:07:51;;;;;;;5.30;4.38;;;19.50;99.90;;;;;;5070432;28;20539;-77
2022/06/26 09:10:17;;;;;;;6.90;4.20;;;19.50;99.90;;;;;;5079907;28;20179;-75
2022/06/26 09:12:51;;;;;;;5.30;4.65;;;19.50;99.90;;;;;;5066803;28;20123;-75
2022/06/26 09:15:19;;;;;;;4.68;3.38;;;19.50;99.90;;;;;;5063834;28;20098;-76
2022/06/26 09:17:59;;;;;;;4.53;3.50;;;19.50;99.90;;;;;;5065704;28;20058;-75
2022/06/26 09:20:26;;;;;;;4.10;2.78;;;19.50;99.90;;;;;;5065277;28;20503;-75
2022/06/26 09:22:56;;;;;;;4.28;3.92;;;19.40;99.90;;;;;;5069569;28;20536;-75
2022/06/26 09:25:36;;;;;;;5.15;3.50;;;19.40;99.90;;;;;;5053608;28;20054;-75
2022/06/26 09:28:06;;;;;;;3.38;3.08;;;19.40;99.90;;;;;;5088326;28;20165;-74
2022/06/26 09:30:32;;;;;;;7.97;3.50;;;19.70;99.90;;;;;;5064952;28;20526;-75
2022/06/26 09:32:58;;;;;;;3.13;2.90;;;19.50;99.90;;;;;;5061523;28;20047;-75
2022/06/26 09:35:24;;;;;;;8.88;2.90;;;19.50;99.90;;;;;;5089357;28;20044;-75
2022/06/26 09:37:49;;;;;;;2.88;2.20;;;20.10;99.90;;;;;;5089506;28;20036;-75
2022/06/26 09:40:16;;;;;;;3.47;2.45;;;19.70;99.90;;;;;;5053663;28;20143;-75
2022/06/26 09:42:41;;;;;;;4.72;3.10;;;20.00;99.90;;;;;;5070345;28;20432;-75
2022/06/26 09:45:10;;;;;;;4.90;2.88;;;19.90;99.90;;;;;;5088085;28;20036;-75
2022/06/26 09:47:36;;;;;;;3.80;2.42;;;19.90;99.90;;;;;;5070670;28;20504;-72
2022/06/26 09:50:05;;;;;;;4.25;3.00;;;20.70;99.90;;;;;;5087461;28;20048;-73
2022/06/26 09:52:34;;;;;;;5.78;2.78;;;20.10;99.90;;;;;;5070683;28;20042;-74
2022/06/26 09:55:01;;;;;;;5.70;2.47;;;20.00;99.90;;;;;;5070486;28;20127;-73
2022/06/26 09:57:28;;;;;;;2.75;1.50;;;20.00;99.90;;;;;;5070001;28;20671;-73
2022/06/26 09:59:55;;;;;;;2.70;1.63;;;20.10;99.90;;;;;;5068453;28;20040;-72
2022/06/26 10:07:52;;;;;;;4.00;1.65;;;20.30;99.90;;;;;;5068863;28;20109;-72
2022/06/26 10:10:22;;;;;;;4.05;1.45;;;20.30;99.90;;;;;;5069859;28;20044;-72
2022/06/26 10:12:55;;;;;;;7.03;2.50;;;20.40;99.90;;;;;;5083876;28;20028;-75
2022/06/26 10:15:25;;;;;;;2.90;1.90;;;21.00;99.90;;;;;;5083624;28;20529;-73
2022/06/26 10:18:17;;;;;;;2.95;2.33;;;20.50;99.90;;;;;;5069988;28;20032;-73
2022/06/26 10:20:44;;;;;;;3.55;1.63;;;20.60;99.90;;;;;;5082943;28;20047;-73
2022/06/26 10:23:10;;;;;;;3.78;2.13;;;20.60;99.90;;;;;;5089095;28;20032;-73
2022/06/26 10:25:35;;;;;;;3.58;2.38;;;20.70;99.90;;;;;;5087779;28;20108;-76
2022/06/26 10:28:04;;;;;;;3.28;1.77;;;20.70;99.90;;;;;;5054191;28;20433;-76
2022/06/26 10:30:31;;;;;;;4.90;2.25;;;20.70;99.90;;;;;;5089118;28;20075;-76
2022/06/26 10:33:09;;;;;;;6.38;2.00;;;20.60;99.90;;;;;;5052718;28;20448;-76
2022/06/26 10:35:44;;;;;;;3.55;1.60;;;20.60;99.90;;;;;;5082417;28;20039;-76
2022/06/26 10:38:28;;;;;;;7.32;1.67;;;20.60;99.90;;;;;;5071032;28;20136;-75
2022/06/26 10:44:12;;;;;;;3.85;1.77;;;20.60;99.90;;;;;;5068123;28;20095;-75
2022/06/26 10:46:49;;;;;;;1.92;1.65;;;20.50;99.90;;;;;;5063171;28;20036;-79
2022/06/26 10:49:15;;;;;;;3.53;1.73;;;20.50;99.90;;;;;;5081995;28;20048;-79
2022/06/26 10:51:45;;;;;;;2.67;1.63;;;20.50;99.90;;;;;;5050959;28;20395;-77
2022/06/26 10:54:25;;;;;;;4.70;2.38;;;21.10;99.90;;;;;;5068545;28;20028;-77
2022/06/26 10:57:13;;;;;;;3.10;1.92;;;20.50;99.90;;;;;;5067163;28;20040;-74
2022/06/26 10:59:41;;;;;;;2.20;1.70;;;20.70;99.90;;;;;;5051722;28;20062;-77
2022/06/26 11:02:11;;;;;;;4.40;2.05;;;20.70;99.90;;;;;;5052221;28;20086;-79
2022/06/26 11:04:47;;;;;;;6.53;2.50;;;20.90;99.90;;;;;;5068079;28;20119;-77
2022/06/26 11:07:14;;;;;;;5.13;2.30;;;21.00;99.90;;;;;;5069921;28;20040;-79
2022/06/26 11:09:41;;;;;;;4.18;1.98;;;21.00;99.90;;;;;;5068400;28;20032;-80
2022/06/26 11:12:07;;;;;;;2.80;1.45;;;21.00;99.90;;;;;;5068718;28;20067;-81
2022/06/26 11:14:32;;;;;;;2.78;1.38;;;21.00;99.90;;;;;;5051091;28;20053;-78
2022/06/26 11:16:58;;;;;;;2.17;1.30;;;21.00;99.90;;;;;;5051324;28;20032;-79
2022/06/26 11:19:26;;;;;;;2.05;1.40;;;21.00;99.90;;;;;;5068559;28;20084;-74
2022/06/26 11:22:04;;;;;;;4.72;1.80;;;21.10;99.90;;;;;;5066920;28;20392;-74
2022/06/26 11:24:32;;;;;;;5.78;1.98;;;21.10;99.90;;;;;;5084802;28;20044;-74
2022/06/26 11:26:58;;;;;;;4.85;2.08;;;21.10;99.90;;;;;;5067852;28;20040;-74
2022/06/26 11:29:24;;;;;;;5.10;1.67;;;21.50;99.90;;;;;;5101521;28;20099;-73
2022/06/26 11:31:50;;;;;;;5.38;1.73;;;21.20;99.90;;;;;;5086355;28;20043;-73
2022/06/26 11:34:17;;;;;;;6.43;2.80;;;21.00;99.90;;;;;;5066784;28;20040;-74
2022/06/26 11:36:57;;;;;;;4.95;1.95;;;21.10;99.90;;;;;;5068987;28;20384;-73
2022/06/26 11:39:24;;;;;;;5.97;3.13;;;21.20;99.90;;;;;;5055384;28;20114;-74
2022/06/26 11:41:50;;;;;;;3.38;1.15;;;21.20;99.90;;;;;;5071965;28;21449;-74
2022/06/26 11:44:16;;;;;;;4.97;1.65;;;21.20;99.90;;;;;;5069805;28;20058;-74
2022/06/26 11:46:42;;;;;;;3.40;1.30;;;21.20;99.90;;;;;;5072887;28;20475;-74
2022/06/26 11:49:11;;;;;;;2.30;1.38;;;21.30;99.90;;;;;;5070608;28;20047;-74
2022/06/26 11:51:38;;;;;;;5.38;1.20;;;21.30;99.90;;;;;;5051615;28;20489;-74
2022/06/26 11:54:04;;;;;;;6.65;2.38;;;21.40;99.90;;;;;;5054185;28;20094;-73
2022/06/26 11:56:30;;;;;;;4.68;1.38;;;21.40;99.90;;;;;;5071207;28;20036;-74
2022/06/26 11:59:00;;;;;;;5.53;1.65;;;21.40;99.90;;;;;;5071764;28;20479;-75
2022/06/26 12:01:34;;;;;;;2.78;1.48;;;21.40;99.90;;;;;;5089904;28;20133;-75
2022/06/26 12:04:00;;;;;;;4.00;1.95;;;21.40;99.90;;;;;;5070815;28;20047;-75
2022/06/26 12:06:40;;;;;;;3.53;1.20;;;21.30;99.90;;;;;;5071412;28;20133;-75
2022/06/26 12:09:25;;;;;;;2.08;1.08;;;21.30;99.90;;;;;;5089329;28;20044;-75
2022/06/26 12:11:54;;;;;;;3.78;1.05;;;21.30;99.90;;;;;;5070001;28;20052;-75
2022/06/26 12:14:21;;;;;;;6.07;1.40;;;21.30;99.90;;;;;;5072144;28;20048;-75
2022/06/26 12:16:52;;;;;;;4.55;1.73;;;21.30;99.90;;;;;;5089191;28;20040;-74
2022/06/26 12:19:19;;;;;;;5.22;1.20;;;21.40;99.90;;;;;;5054103;28;20040;-74
2022/06/26 12:21:50;;;;;;;4.32;1.13;;;21.40;99.90;;;;;;5089494;28;20127;-74
2022/06/26 12:24:16;;;;;;;5.00;1.35;;;21.40;99.90;;;;;;5088366;28;20127;-74
2022/06/26 12:26:43;;;;;;;5.00;2.05;;;21.40;99.90;;;;;;5070519;28;20036;-74
2022/06/26 12:29:13;;;;;;;3.53;1.42;;;21.30;99.90;;;;;;5071856;28;20088;-75
2022/06/26 12:31:39;;;;;;;3.20;1.42;;;21.30;99.90;;;;;;5052933;28;20130;-76
2022/06/26 12:34:06;;;;;;;11.00;2.97;;;21.40;99.90;;;;;;5054402;28;20153;-76
2022/06/26 12:36:33;;;;;;;3.35;1.67;;;21.20;99.90;;;;;;5071527;28;20052;-71
2022/06/26 12:38:59;;;;;;;2.78;1.33;;;21.20;99.90;;;;;;5064175;28;20411;-74
2022/06/26 12:41:25;;;;;;;5.72;2.35;;;21.30;99.90;;;;;;5090551;28;20043;-77
2022/06/26 12:43:59;;;;;;;5.43;1.45;;;21.40;99.90;;;;;;5089692;28;20052;-75
2022/06/26 12:46:25;;;;;;;;;;;21.70;99.90;;;;;;5070496;28;20036;-74
2022/06/26 12:48:51;;;;;;;3.75;0.95;;;21.40;99.90;;;;;;5086351;28;19931;-74
2022/06/26 12:51:17;;;;;;;5.88;1.25;;;21.40;99.90;;;;;;5093942;28;20047;-74
2022/06/26 12:53:43;;;;;;;5.45;1.27;;;21.50;99.90;;;;;;5076326;28;20047;-75
2022/06/26 12:56:11;;;;;;;3.38;1.13;;;21.40;99.90;;;;;;5086478;28;20047;-74